Date,TemperatureHighF,TemperatureAvgF,TemperatureLowF,DewpointHighF,DewpointAvgF,DewpointLowF,HumidityHigh,HumidityAvg,HumidityLow,PressureMaxIn,PressureMinIn,WindSpeedMaxMPH,WindSpeedAvgMPH,GustSpeedMaxMPH,PrecipitationSumIn
2013-11-1,77,68,60,68,63,55,100,85,48,29.86,29.68,25,2,25,0.00
2013-11-2,66,59,51,56,48,41,83,68,54,29.98,29.75,27,3,27,0.00
2013-11-3,54,50,40,43,36,26,82,61,34,30.51,29.97,20,4,20,0.00
2013-11-4,44,38,32,29,26,24,73,62,50,30.69,30.51,11,2,11,0.00
2013-11-5,53,45,34,47,38,26,89,75,62,30.69,30.53,10,1,10,0.00
2013-11-6,67,58,50,57,53,46,100,85,68,30.54,30.14,16,2,16,0.00
2013-11-7,60,54,43,59,49,27,100,84,54,30.17,29.98,29,4,29,0.00
2013-11-8,50,44,36,33,29,26,70,56,42,30.39,30.16,23,3,23,0.00
2013-11-9,55,45,33,34,31,26,76,58,44,30.42,30.11,9,2,17,0.00
2013-11-10,62,50,42,40,33,29,62,52,34,30.33,30.05,29,5,29,0.00
2013-11-11,59,49,40,35,32,29,70,53,38,30.38,30.14,18,2,18,0.00
2013-11-12,38,36,32,32,21,17,84,56,45,30.49,30.31,22,6,22,0.00
2013-11-13,43,35,30,23,21,15,74,56,42,30.56,30.45,23,4,25,0.00
2013-11-14,60,45,30,26,21,13,61,39,22,30.45,30.30,8,2,11,0.00
2013-11-15,62,50,38,42,27,20,83,42,27,30.36,30.27,10,1,10,0.00
2013-11-16,51,48,44,51,48,42,100,99,84,30.42,30.30,10,2,10,0.00
2013-11-17,61,55,51,61,55,51,100,100,100,30.32,29.84,17,3,17,0.00
2013-11-18,68,59,49,62,42,30,100,56,28,30.06,29.81,22,5,36,0.00
2013-11-19,48,42,37,32,29,28,69,60,49,30.45,30.05,25,5,25,0.00
2013-11-20,45,38,32,31,27,24,83,67,45,30.64,30.44,14,3,14,0.00
2013-11-21,48,41,33,43,38,30,94,87,79,30.65,30.46,10,2,10,0.00
2013-11-22,63,57,44,58,53,42,94,87,77,30.46,30.12,21,2,21,0.00
2013-11-23,56,43,30,52,30,19,88,61,42,30.32,30.14,25,6,26,0.00
2013-11-24,30,26,22,20,8,5,70,48,35,30.59,30.30,39,8,39,0.00
2013-11-25,35,28,20,15,11,8,64,49,36,30.62,30.39,12,2,12,0.00
2013-11-26,35,34,32,35,28,15,100,83,44,30.40,29.71,11,1,11,0.00
2013-11-27,39,36,28,39,32,14,100,87,56,30.14,29.64,34,8,38,0.00
2013-11-28,39,32,27,23,19,14,66,59,50,30.54,30.13,27,4,27,0.00
2013-11-29,40,34,28,26,23,21,79,66,53,30.79,30.52,20,3,20,0.00
2013-11-30,36,31,24,25,23,20,89,74,58,30.79,30.45,10,2,12,0.00